createdAt,value
2019-01-23T00:00:15.930Z,91.943359
2019-01-23T00:01:25.441Z,91.986084
2019-01-23T00:02:34.983Z,92.199707
2019-01-23T00:03:44.518Z,92.41333
2019-01-23T00:04:54.044Z,92.62085
2019-01-23T00:06:03.558Z,92.938232
2019-01-23T00:07:13.084Z,93.048096
2019-01-23T00:08:22.768Z,93.151855
2019-01-23T00:09:32.285Z,93.048096
2019-01-23T00:10:41.818Z,92.938232
2019-01-23T00:11:51.346Z,92.834473
2019-01-23T00:13:00.921Z,92.51709
2019-01-23T00:14:10.464Z,92.41333
2019-01-23T00:15:20.010Z,92.303467
2019-01-23T00:16:29.570Z,92.51709
2019-01-23T00:17:39.127Z,92.663574
2019-01-23T00:18:48.632Z,93.09082
2019-01-23T00:19:58.156Z,93.09082
2019-01-23T00:21:07.676Z,93.29834
2019-01-23T00:22:17.236Z,93.408203
2019-01-23T00:23:26.785Z,93.615723
2019-01-23T00:24:36.323Z,93.725586
2019-01-23T00:25:47.320Z,93.682861
2019-01-23T00:26:55.440Z,93.572998
2019-01-23T00:28:05.033Z,93.469238
2019-01-23T00:29:14.553Z,93.151855
2019-01-23T00:30:24.104Z,92.938232
2019-01-23T00:31:33.628Z,92.730713
2019-01-23T00:32:43.223Z,92.62085
2019-01-23T00:33:52.776Z,92.730713
2019-01-23T00:35:02.315Z,92.730713
2019-01-23T00:36:11.852Z,92.730713
2019-01-23T00:37:21.428Z,92.834473
2019-01-23T00:38:30.954Z,92.730713
2019-01-23T00:39:40.506Z,92.730713
2019-01-23T00:40:50.033Z,92.938232
2019-01-23T00:41:59.581Z,93.048096
2019-01-23T00:43:09.129Z,93.048096
2019-01-23T00:44:18.678Z,93.151855
2019-01-23T00:45:28.222Z,93.151855
2019-01-23T00:46:37.779Z,92.938232
2019-01-23T00:47:47.290Z,92.834473
2019-01-23T00:48:56.858Z,92.834473
2019-01-23T00:50:06.393Z,92.834473
2019-01-23T00:51:15.946Z,92.938232
2019-01-23T00:52:25.474Z,92.938232
2019-01-23T00:53:35.008Z,93.048096
2019-01-23T00:54:44.534Z,93.151855
2019-01-23T00:55:54.068Z,93.048096
2019-01-23T00:57:03.625Z,92.938232
2019-01-23T00:58:13.188Z,92.938232
2019-01-23T00:59:22.718Z,92.938232
2019-01-23T01:00:32.251Z,92.687988
2019-01-23T01:01:41.807Z,92.578125
2019-01-23T01:02:51.325Z,92.474365
2019-01-23T01:04:00.871Z,92.370605
2019-01-23T01:05:10.385Z,92.474365
2019-01-23T01:06:19.929Z,92.370605
2019-01-23T01:07:29.445Z,92.370605
2019-01-23T01:08:38.993Z,92.260742
2019-01-23T01:09:48.536Z,91.943359
2019-01-23T01:10:58.071Z,91.943359
2019-01-23T01:12:07.638Z,91.943359
2019-01-23T01:13:18.163Z,91.943359
2019-01-23T01:14:27.706Z,92.053223
2019-01-23T01:15:37.361Z,92.156982
2019-01-23T01:16:47.087Z,92.260742
2019-01-23T01:17:56.819Z,91.986084
2019-01-23T01:19:06.484Z,91.986084
2019-01-23T01:20:16.016Z,92.303467
2019-01-23T01:21:25.599Z,92.51709
2019-01-23T01:22:35.158Z,92.730713
2019-01-23T01:23:44.727Z,92.62085
2019-01-23T01:24:54.266Z,92.730713
2019-01-23T01:26:03.780Z,92.730713
2019-01-23T01:27:13.340Z,92.834473
2019-01-23T01:28:22.884Z,92.834473
2019-01-23T01:29:32.416Z,92.938232
2019-01-23T01:30:41.941Z,93.048096
2019-01-23T01:31:51.488Z,93.048096
2019-01-23T01:33:01.000Z,92.730713
2019-01-23T01:34:11.550Z,92.62085
2019-01-23T01:35:21.102Z,92.730713
2019-01-23T01:36:30.642Z,92.62085
2019-01-23T01:37:40.173Z,92.51709
2019-01-23T01:38:49.726Z,92.370605
2019-01-23T01:39:59.245Z,92.260742
2019-01-23T01:41:08.754Z,92.053223
2019-01-23T01:42:18.277Z,91.986084
2019-01-23T01:43:27.851Z,91.943359
2019-01-23T01:44:37.398Z,91.943359
2019-01-23T01:45:46.906Z,91.8396
2019-01-23T01:46:56.483Z,91.73584
2019-01-23T01:48:06.032Z,91.943359
2019-01-23T01:49:15.568Z,91.73584
2019-01-23T01:50:26.098Z,91.668701
2019-01-23T01:51:35.680Z,91.668701
2019-01-23T01:52:45.206Z,91.564941
2019-01-23T01:53:54.782Z,91.668701
2019-01-23T01:55:04.315Z,91.778564
2019-01-23T01:56:13.840Z,91.778564
2019-01-23T01:57:23.370Z,91.882324
2019-01-23T01:58:32.932Z,92.095947
2019-01-23T01:59:42.473Z,92.199707
2019-01-23T02:00:52.013Z,91.986084
2019-01-23T02:02:01.563Z,91.986084
2019-01-23T02:03:15.320Z,91.778564
2019-01-23T02:04:20.645Z,91.668701
2019-01-23T02:05:30.188Z,91.351318
2019-01-23T02:06:39.735Z,91.351318
2019-01-23T02:07:49.263Z,91.564941
2019-01-23T02:08:59.843Z,91.564941
2019-01-23T02:10:09.372Z,91.882324
2019-01-23T02:11:18.940Z,92.095947
2019-01-23T02:12:28.472Z,92.199707
2019-01-23T02:13:37.998Z,92.199707
2019-01-23T02:14:47.542Z,92.41333
2019-01-23T02:15:57.105Z,92.303467
2019-01-23T02:17:06.668Z,92.303467
2019-01-23T02:18:16.213Z,92.41333
2019-01-23T02:19:25.786Z,92.303467
2019-01-23T02:20:35.325Z,92.199707
2019-01-23T02:21:44.855Z,92.199707
2019-01-23T02:22:54.408Z,92.199707
2019-01-23T02:24:03.958Z,92.095947
2019-01-23T02:25:14.476Z,91.986084
2019-01-23T02:26:24.047Z,91.986084
2019-01-23T02:27:33.558Z,91.986084
2019-01-23T02:28:43.112Z,92.095947
2019-01-23T02:29:52.652Z,92.053223
2019-01-23T02:31:02.178Z,91.943359
2019-01-23T02:32:11.710Z,91.943359
2019-01-23T02:33:21.256Z,91.8396
2019-01-23T02:34:30.783Z,91.625977
2019-01-23T02:35:40.328Z,91.625977
2019-01-23T02:36:49.855Z,91.73584
2019-01-23T02:37:59.367Z,91.73584
2019-01-23T02:39:08.904Z,91.625977
2019-01-23T02:40:18.449Z,91.308594
2019-01-23T02:41:27.986Z,91.204834
2019-01-23T02:42:37.506Z,91.308594
2019-01-23T02:43:47.043Z,91.308594
2019-01-23T02:44:56.581Z,91.204834
2019-01-23T02:46:06.103Z,91.204834
2019-01-23T02:47:15.627Z,90.991211
2019-01-23T02:48:25.171Z,90.991211
2019-01-23T02:49:34.699Z,91.05835
2019-01-23T02:50:44.260Z,90.740967
2019-01-23T02:51:53.788Z,90.740967
2019-01-23T02:53:03.354Z,90.783691
2019-01-23T02:54:11.862Z,90.783691
2019-01-23T02:55:21.405Z,90.673828
2019-01-23T02:56:30.956Z,90.783691
2019-01-23T02:57:41.498Z,90.887451
2019-01-23T02:58:51.042Z,90.991211
2019-01-23T03:00:00.585Z,91.101074
2019-01-23T03:01:10.143Z,91.204834
2019-01-23T03:02:19.753Z,91.101074
2019-01-23T03:03:29.374Z,90.783691
2019-01-23T03:04:38.999Z,90.783691
2019-01-23T03:05:48.576Z,90.887451
2019-01-23T03:06:58.162Z,90.637207
2019-01-23T03:08:07.723Z,90.527344
2019-01-23T03:09:17.259Z,90.637207
2019-01-23T03:10:26.786Z,90.740967
2019-01-23T03:11:36.344Z,90.637207
2019-01-23T03:12:45.900Z,90.106201
2019-01-23T03:13:55.413Z,90.106201
2019-01-23T03:15:04.970Z,90.209961
2019-01-23T03:16:14.483Z,90.209961
2019-01-23T03:17:24.031Z,90.209961
2019-01-23T03:18:33.586Z,90.319824
2019-01-23T03:19:43.149Z,90.423584
2019-01-23T03:20:52.690Z,90.423584
2019-01-23T03:22:02.235Z,90.356445
2019-01-23T03:23:11.802Z,90.673828
2019-01-23T03:24:21.330Z,90.783691
2019-01-23T03:25:30.864Z,91.204834
2019-01-23T03:26:40.374Z,91.418457
2019-01-23T03:27:49.896Z,91.308594
2019-01-23T03:28:59.519Z,91.522217
2019-01-23T03:30:09.038Z,91.8396
2019-01-23T03:31:18.550Z,91.943359
2019-01-23T03:32:28.102Z,91.8396
2019-01-23T03:33:37.618Z,91.73584
2019-01-23T03:34:47.156Z,91.625977
2019-01-23T03:35:56.697Z,91.625977
2019-01-23T03:37:06.223Z,91.625977
2019-01-23T03:38:15.786Z,91.418457
2019-01-23T03:39:25.361Z,91.418457
2019-01-23T03:40:34.897Z,91.375732
2019-01-23T03:41:44.434Z,91.375732
2019-01-23T03:42:53.990Z,91.162109
2019-01-23T03:44:03.506Z,90.844727
2019-01-23T03:45:13.032Z,90.637207
2019-01-23T03:46:22.568Z,90.637207
2019-01-23T03:47:32.089Z,90.740967
2019-01-23T03:48:41.632Z,90.844727
2019-01-23T03:49:51.181Z,90.95459
2019-01-23T03:51:00.728Z,91.05835
2019-01-23T03:52:10.298Z,91.05835
2019-01-23T03:53:19.931Z,91.05835
2019-01-23T03:54:29.444Z,90.95459
2019-01-23T03:55:39.027Z,90.95459
2019-01-23T03:56:48.577Z,90.95459
2019-01-23T03:57:58.136Z,90.95459
2019-01-23T03:59:07.661Z,90.740967
2019-01-23T04:00:18.422Z,90.527344
2019-01-23T04:01:26.768Z,90.740967
2019-01-23T04:02:36.343Z,90.637207
2019-01-23T04:03:45.903Z,90.740967
2019-01-23T04:04:55.474Z,90.95459
2019-01-23T04:06:05.000Z,90.95459
2019-01-23T04:07:14.535Z,90.844727
2019-01-23T04:08:24.056Z,90.844727
2019-01-23T04:09:33.585Z,90.783691
2019-01-23T04:10:43.148Z,90.673828
2019-01-23T04:11:52.702Z,90.673828
2019-01-23T04:13:02.275Z,90.783691
2019-01-23T04:14:11.807Z,90.783691
2019-01-23T04:15:21.348Z,90.991211
2019-01-23T04:16:30.891Z,91.101074
2019-01-23T04:17:40.429Z,91.204834
2019-01-23T04:18:49.938Z,91.418457
2019-01-23T04:19:59.478Z,91.625977
2019-01-23T04:21:09.004Z,91.73584
2019-01-23T04:22:18.562Z,91.73584
2019-01-23T04:23:28.131Z,91.73584
2019-01-23T04:24:37.687Z,91.625977
2019-01-23T04:25:47.227Z,91.479492
2019-01-23T04:26:56.786Z,91.162109
2019-01-23T04:28:06.355Z,90.844727
2019-01-23T04:29:15.884Z,90.740967
2019-01-23T04:30:25.432Z,90.740967
2019-01-23T04:31:34.958Z,90.740967
2019-01-23T04:32:44.487Z,90.740967
2019-01-23T04:33:54.014Z,90.423584
2019-01-23T04:35:03.564Z,90.319824
2019-01-23T04:36:13.118Z,90.319824
2019-01-23T04:37:22.633Z,90.423584
2019-01-23T04:38:32.259Z,90.783691
2019-01-23T04:39:41.781Z,91.204834
2019-01-23T04:40:51.282Z,91.204834
2019-01-23T04:42:00.847Z,91.418457
2019-01-23T04:43:10.408Z,91.522217
2019-01-23T04:44:19.950Z,91.73584
2019-01-23T04:45:29.502Z,91.8396
2019-01-23T04:46:39.049Z,91.73584
2019-01-23T04:47:48.599Z,91.589355
2019-01-23T04:48:58.136Z,91.693115
2019-01-23T04:50:07.665Z,91.693115
2019-01-23T04:51:17.186Z,91.693115
2019-01-23T04:52:26.738Z,91.375732
2019-01-23T04:53:36.278Z,91.271973
2019-01-23T04:54:45.842Z,91.05835
2019-01-23T04:55:55.366Z,91.05835
2019-01-23T04:57:04.920Z,90.844727
2019-01-23T04:58:14.459Z,90.637207
2019-01-23T04:59:23.998Z,90.844727
2019-01-23T05:00:33.596Z,90.740967
2019-01-23T05:01:43.116Z,90.740967
2019-01-23T05:02:52.640Z,90.740967
2019-01-23T05:04:02.255Z,90.740967
2019-01-23T05:05:11.811Z,90.740967
2019-01-23T05:06:21.396Z,90.740967
2019-01-23T05:07:31.008Z,90.844727
2019-01-23T05:08:40.731Z,90.844727
2019-01-23T05:09:50.262Z,90.95459
2019-01-23T05:10:59.790Z,90.95459
2019-01-23T05:12:09.431Z,90.95459
2019-01-23T05:13:19.004Z,90.95459
2019-01-23T05:14:28.605Z,91.162109
2019-01-23T05:15:38.195Z,91.162109
2019-01-23T05:16:47.720Z,90.95459
2019-01-23T05:17:57.313Z,90.95459
2019-01-23T05:19:06.838Z,90.95459
2019-01-23T05:20:16.345Z,90.844727
2019-01-23T05:21:25.874Z,90.95459
2019-01-23T05:22:35.616Z,91.05835
2019-01-23T05:23:45.177Z,91.05835
2019-01-23T05:24:54.751Z,91.05835
2019-01-23T05:26:04.267Z,90.95459
2019-01-23T05:27:13.775Z,91.162109
2019-01-23T05:28:23.331Z,91.375732
2019-01-23T05:29:32.877Z,90.95459
2019-01-23T05:30:42.491Z,90.95459
2019-01-23T05:31:52.093Z,91.162109
2019-01-23T05:33:01.645Z,91.479492
2019-01-23T05:34:11.198Z,92.053223
2019-01-23T05:35:20.748Z,92.370605
2019-01-23T05:36:30.375Z,92.791748
2019-01-23T05:37:39.890Z,92.578125
2019-01-23T05:38:49.444Z,92.791748
2019-01-23T05:39:59.041Z,93.048096
2019-01-23T05:41:08.557Z,93.255615
2019-01-23T05:42:18.137Z,93.365479
2019-01-23T05:43:27.714Z,93.255615
2019-01-23T05:44:37.260Z,93.469238
2019-01-23T05:45:46.809Z,93.572998
2019-01-23T05:46:56.400Z,93.829346
2019-01-23T05:48:05.972Z,94.146729
2019-01-23T05:49:15.521Z,94.250488
2019-01-23T05:50:25.050Z,94.360352
2019-01-23T05:51:34.592Z,94.360352
2019-01-23T05:52:44.136Z,94.464111
2019-01-23T05:53:53.686Z,94.464111
2019-01-23T05:55:03.216Z,94.464111
2019-01-23T05:56:12.759Z,94.63501
2019-01-23T05:57:22.299Z,94.525146
2019-01-23T05:58:31.873Z,94.317627
2019-01-23T05:59:41.443Z,94.207764
2019-01-23T06:00:50.964Z,94.207764
2019-01-23T06:02:00.491Z,94.317627
2019-01-23T06:03:10.069Z,94.421387
2019-01-23T06:04:19.593Z,94.317627
2019-01-23T06:05:29.798Z,94.421387
2019-01-23T06:06:38.449Z,94.317627
2019-01-23T06:07:48.002Z,94.317627
2019-01-23T06:08:57.541Z,94.104004
2019-01-23T06:10:07.124Z,94.104004
2019-01-23T06:11:16.660Z,94.421387
2019-01-23T06:12:26.225Z,94.567871
2019-01-23T06:13:35.763Z,94.677734
2019-01-23T06:14:45.322Z,94.891357
2019-01-23T06:15:54.854Z,94.848633
2019-01-23T06:17:04.476Z,94.891357
2019-01-23T06:18:14.120Z,94.995117
2019-01-23T06:19:23.741Z,95.056152
2019-01-23T06:20:33.339Z,95.166016
2019-01-23T06:21:42.935Z,95.166016
2019-01-23T06:22:52.527Z,95.056152
2019-01-23T06:24:02.077Z,94.848633
2019-01-23T06:25:11.625Z,94.952393
2019-01-23T06:26:21.148Z,95.098877
2019-01-23T06:27:30.706Z,95.056152
2019-01-23T06:28:40.264Z,95.166016
2019-01-23T06:29:49.799Z,95.098877
2019-01-23T06:30:59.344Z,95.20874
2019-01-23T06:32:08.938Z,95.41626
2019-01-23T06:33:18.512Z,95.629883
2019-01-23T06:34:28.050Z,95.733643
2019-01-23T06:35:37.622Z,96.051025
2019-01-23T06:36:47.163Z,96.160889
2019-01-23T06:37:56.696Z,96.264648
2019-01-23T06:39:06.244Z,96.264648
2019-01-23T06:40:15.790Z,96.264648
2019-01-23T06:41:25.338Z,96.160889
2019-01-23T06:42:34.892Z,96.160889
2019-01-23T06:43:44.443Z,96.160889
2019-01-23T06:44:53.993Z,96.118164
2019-01-23T06:46:02.572Z,96.118164
2019-01-23T06:47:12.124Z,95.947266
2019-01-23T06:48:21.681Z,95.947266
2019-01-23T06:49:31.267Z,96.051025
2019-01-23T06:50:40.829Z,95.947266
2019-01-23T06:51:50.372Z,95.947266
2019-01-23T06:52:59.909Z,95.947266
2019-01-23T06:54:09.451Z,96.051025
2019-01-23T06:55:19.028Z,96.051025
2019-01-23T06:56:28.598Z,96.051025
2019-01-23T06:57:38.085Z,95.947266
2019-01-23T06:58:47.631Z,95.947266
2019-01-23T06:59:57.173Z,95.947266
2019-01-23T07:01:06.689Z,95.843506
2019-01-23T07:02:16.211Z,95.733643
2019-01-23T07:03:25.767Z,95.629883
2019-01-23T07:04:35.324Z,95.629883
2019-01-23T07:05:44.863Z,95.629883
2019-01-23T07:06:54.371Z,95.629883
2019-01-23T07:08:03.880Z,95.629883
2019-01-23T07:09:13.430Z,95.483398
2019-01-23T07:10:22.939Z,95.3125
2019-01-23T07:11:32.479Z,95.3125
2019-01-23T07:12:42.080Z,95.41626
2019-01-23T07:13:51.645Z,95.526123
2019-01-23T07:15:01.215Z,95.526123
2019-01-23T07:16:10.722Z,95.629883
2019-01-23T07:17:20.274Z,95.629883
2019-01-23T07:18:29.813Z,95.629883
2019-01-23T07:19:39.396Z,95.629883
2019-01-23T07:20:48.929Z,95.526123
2019-01-23T07:21:58.513Z,95.629883
2019-01-23T07:23:08.094Z,95.733643
2019-01-23T07:24:17.723Z,95.690918
2019-01-23T07:25:27.315Z,95.690918
2019-01-23T07:26:36.873Z,95.690918
2019-01-23T07:27:46.537Z,95.800781
2019-01-23T07:28:56.189Z,95.690918
2019-01-23T07:30:05.807Z,95.690918
2019-01-23T07:31:15.430Z,95.587158
2019-01-23T07:32:25.009Z,95.483398
2019-01-23T07:33:34.639Z,95.373535
2019-01-23T07:34:44.243Z,95.269775
2019-01-23T07:35:53.854Z,95.166016
2019-01-23T07:37:03.422Z,94.952393
2019-01-23T07:38:12.941Z,95.056152
2019-01-23T07:39:22.490Z,95.269775
2019-01-23T07:40:32.027Z,95.269775
2019-01-23T07:41:41.561Z,95.166016
2019-01-23T07:42:51.098Z,95.269775
2019-01-23T07:44:00.631Z,95.373535
2019-01-23T07:45:10.197Z,95.373535
2019-01-23T07:46:19.691Z,95.166016
2019-01-23T07:47:29.236Z,95.013428
2019-01-23T07:48:38.784Z,94.909668
2019-01-23T07:49:48.318Z,94.805908
2019-01-23T07:50:57.877Z,94.805908
2019-01-23T07:52:07.449Z,94.482422
2019-01-23T07:53:16.991Z,94.378662
2019-01-23T07:54:26.531Z,94.421387
2019-01-23T07:55:36.079Z,94.592285
2019-01-23T07:56:45.642Z,94.592285
2019-01-23T07:57:55.242Z,94.63501
2019-01-23T07:59:04.778Z,94.696045
2019-01-23T08:00:15.349Z,94.73877
2019-01-23T08:01:24.885Z,94.805908
2019-01-23T08:02:34.439Z,94.909668
2019-01-23T08:03:43.970Z,94.909668
2019-01-23T08:04:53.499Z,94.805908
2019-01-23T08:06:03.051Z,94.696045
2019-01-23T08:07:12.571Z,94.696045
2019-01-23T08:08:22.083Z,94.378662
2019-01-23T08:09:31.639Z,94.378662
2019-01-23T08:10:41.170Z,94.378662
2019-01-23T08:11:50.748Z,94.274902
2019-01-23T08:13:00.257Z,94.274902
2019-01-23T08:14:09.816Z,94.018555
2019-01-23T08:15:19.343Z,94.018555
2019-01-23T08:16:28.869Z,94.018555
2019-01-23T08:17:38.409Z,93.914795
2019-01-23T08:18:47.950Z,93.493652
2019-01-23T08:19:57.495Z,93.341064
2019-01-23T08:21:08.023Z,93.237305
2019-01-23T08:22:17.546Z,93.023682
2019-01-23T08:23:27.094Z,92.706299
2019-01-23T08:24:36.663Z,92.388916
2019-01-23T08:25:46.202Z,92.071533
2019-01-23T08:26:55.747Z,92.071533
2019-01-23T08:28:06.309Z,92.034912
2019-01-23T08:29:15.851Z,91.821289
2019-01-23T08:30:25.428Z,91.821289
2019-01-23T08:31:34.913Z,91.717529
2019-01-23T08:32:44.469Z,91.717529
2019-01-23T08:33:54.019Z,91.717529
2019-01-23T08:35:03.545Z,91.296387
2019-01-23T08:36:13.092Z,90.869141
2019-01-23T08:37:22.619Z,91.229248
2019-01-23T08:38:32.151Z,91.821289
2019-01-23T08:39:41.686Z,92.034912
2019-01-23T08:40:51.237Z,91.925049
2019-01-23T08:42:00.784Z,91.778564
2019-01-23T08:43:10.289Z,91.461182
2019-01-23T08:44:19.859Z,91.040039
2019-01-23T08:45:29.402Z,90.301514
2019-01-23T08:46:38.905Z,90.301514
2019-01-23T08:47:48.456Z,90.197754
2019-01-23T08:48:58.005Z,89.984131
2019-01-23T08:50:07.543Z,90.301514
2019-01-23T08:51:17.084Z,89.984131
2019-01-23T08:52:26.644Z,89.984131
2019-01-23T08:53:36.185Z,89.733887
2019-01-23T08:54:46.729Z,89.416504
2019-01-23T08:55:56.270Z,89.312744
2019-01-23T08:57:05.777Z,89.202881
2019-01-23T08:58:15.326Z,88.781738
2019-01-23T08:59:25.871Z,89.099121
2019-01-23T09:00:35.419Z,88.885498
2019-01-23T09:01:45.935Z,88.677979
2019-01-23T09:02:55.462Z,88.427734
2019-01-23T09:04:05.007Z,87.939453
2019-01-23T09:05:14.527Z,88.464355
2019-01-23T09:06:24.057Z,88.146973
2019-01-23T09:07:33.578Z,87.518311
2019-01-23T09:08:43.148Z,87.72583
2019-01-23T09:09:52.702Z,88.256836
2019-01-23T09:11:02.218Z,88.317871
2019-01-23T09:12:11.734Z,88.110352
2019-01-23T09:13:20.266Z,87.896729
2019-01-23T09:14:29.801Z,87.371826
2019-01-23T09:15:39.354Z,87.689209
2019-01-23T09:16:48.864Z,88.006592
2019-01-23T09:17:58.451Z,87.860107
2019-01-23T09:19:08.019Z,87.329102
2019-01-23T09:20:17.535Z,86.212158
2019-01-23T09:21:27.079Z,86.84082
2019-01-23T09:22:36.637Z,86.950684
2019-01-23T09:23:46.162Z,86.529541
2019-01-23T09:24:55.726Z,86.315918
2019-01-23T09:26:05.241Z,86.315918
2019-01-23T09:27:14.758Z,85.998535
2019-01-23T09:28:24.284Z,86.102295
2019-01-23T09:29:33.869Z,86.419678
2019-01-23T09:30:43.408Z,86.315918
2019-01-23T09:31:53.945Z,86.248779
2019-01-23T09:33:03.459Z,86.883545
2019-01-23T09:34:13.014Z,87.054443
2019-01-23T09:35:22.537Z,86.737061
2019-01-23T09:36:32.090Z,86.529541
2019-01-23T09:37:41.640Z,86.419678
2019-01-23T09:38:51.154Z,85.681152
2019-01-23T09:40:00.745Z,86.212158
2019-01-23T09:41:10.297Z,86.419678
2019-01-23T09:42:19.849Z,86.212158
2019-01-23T09:43:29.377Z,85.791016
2019-01-23T09:44:38.928Z,85.681152
2019-01-23T09:45:48.451Z,85.681152
2019-01-23T09:46:58.014Z,85.36377
2019-01-23T09:48:07.550Z,85.36377
2019-01-23T09:49:17.099Z,85.36377
2019-01-23T09:50:26.694Z,85.681152
2019-01-23T09:51:36.247Z,85.26001
2019-01-23T09:52:45.791Z,85.36377
2019-01-23T09:53:55.368Z,85.473633
2019-01-23T09:55:04.914Z,85.473633
2019-01-23T09:56:13.436Z,85.473633
2019-01-23T09:57:22.961Z,85.26001
2019-01-23T09:58:32.530Z,85.791016
2019-01-23T09:59:42.095Z,85.614014
2019-01-23T10:00:51.626Z,85.931396
2019-01-23T10:02:02.144Z,85.827637
2019-01-23T10:03:11.667Z,85.931396
2019-01-23T10:04:21.215Z,86.248779
2019-01-23T10:05:30.775Z,86.566162
2019-01-23T10:06:40.309Z,86.352539
2019-01-23T10:07:49.831Z,86.248779
2019-01-23T10:08:59.688Z,86.14502
2019-01-23T10:10:09.118Z,86.248779
2019-01-23T10:11:18.661Z,86.035156
2019-01-23T10:12:28.212Z,85.998535
2019-01-23T10:13:37.737Z,85.827637
2019-01-23T10:14:47.269Z,86.035156
2019-01-23T10:15:56.799Z,86.315918
2019-01-23T10:17:06.355Z,86.14502
2019-01-23T10:18:15.883Z,86.14502
2019-01-23T10:19:25.386Z,86.248779
2019-01-23T10:20:34.952Z,86.779785
2019-01-23T10:21:44.491Z,86.566162
2019-01-23T10:22:54.013Z,86.462402
2019-01-23T10:24:03.547Z,86.462402
2019-01-23T10:25:13.093Z,86.035156
2019-01-23T10:26:22.634Z,85.827637
2019-01-23T10:27:32.194Z,85.510254
2019-01-23T10:28:41.728Z,85.723877
2019-01-23T10:29:51.266Z,85.614014
2019-01-23T10:31:06.525Z,85.296631
2019-01-23T10:32:11.312Z,85.510254
2019-01-23T10:33:20.855Z,85.296631
2019-01-23T10:34:30.392Z,85.15625
2019-01-23T10:35:39.945Z,85.046387
2019-01-23T10:36:49.510Z,84.942627
2019-01-23T10:37:59.039Z,84.942627
2019-01-23T10:39:08.565Z,85.113525
2019-01-23T10:40:18.103Z,84.484863
2019-01-23T10:41:27.644Z,84.381104
2019-01-23T10:42:37.194Z,84.063721
2019-01-23T10:43:46.708Z,83.746338
2019-01-23T10:44:56.234Z,83.428955
2019-01-23T10:46:05.766Z,83.178711
2019-01-23T10:47:15.313Z,83.215332
2019-01-23T10:48:24.845Z,83.007812
2019-01-23T10:49:34.395Z,83.850098
2019-01-23T10:50:43.948Z,84.27124
2019-01-23T10:51:53.485Z,84.27124
2019-01-23T10:53:03.027Z,83.850098
2019-01-23T10:54:12.577Z,83.813477
2019-01-23T10:55:22.143Z,83.709717
2019-01-23T10:56:31.682Z,82.861328
2019-01-23T10:57:41.206Z,82.58667
2019-01-23T10:58:50.744Z,83.074951
2019-01-23T11:00:00.278Z,83.074951
2019-01-23T11:01:13.409Z,82.861328
2019-01-23T11:02:19.401Z,82.58667
2019-01-23T11:03:28.975Z,83.361816
2019-01-23T11:04:38.501Z,84.100342
2019-01-23T11:05:48.054Z,84.27124
2019-01-23T11:06:57.604Z,84.16748
2019-01-23T11:08:07.143Z,83.953857
2019-01-23T11:09:16.710Z,83.953857
2019-01-23T11:10:26.235Z,83.428955
2019-01-23T11:11:35.780Z,83.392334
2019-01-23T11:12:45.339Z,82.971191
2019-01-23T11:13:54.862Z,82.861328
2019-01-23T11:15:04.401Z,82.861328
2019-01-23T11:16:13.929Z,82.550049
2019-01-23T11:17:23.458Z,82.507324
2019-01-23T11:18:32.990Z,81.665039
2019-01-23T11:19:42.570Z,81.243896
2019-01-23T11:20:52.143Z,81.665039
2019-01-23T11:22:01.673Z,81.35376
2019-01-23T11:23:11.227Z,81.140137
2019-01-23T11:24:20.747Z,80.969238
2019-01-23T11:25:30.312Z,81.390381
2019-01-23T11:26:39.851Z,81.280518
2019-01-23T11:27:49.418Z,81.5979
2019-01-23T11:28:58.967Z,81.280518
2019-01-23T11:30:08.519Z,81.390381
2019-01-23T11:31:20.378Z,81.390381
2019-01-23T11:32:27.590Z,81.35376
2019-01-23T11:33:37.122Z,81.35376
2019-01-23T11:34:46.643Z,80.401611
2019-01-23T11:35:56.231Z,80.12085
2019-01-23T11:37:05.776Z,81.072998
2019-01-23T11:38:15.323Z,81.5979
2019-01-23T11:39:24.921Z,81.5979
2019-01-23T11:40:34.476Z,80.651855
2019-01-23T11:41:44.003Z,80.505371
2019-01-23T11:42:53.530Z,80.718994
2019-01-23T11:44:03.078Z,80.194092
2019-01-23T11:45:12.596Z,80.822754
2019-01-23T11:46:22.121Z,80.157471
2019-01-23T11:47:31.642Z,79.626465
2019-01-23T11:48:41.144Z,79.418945
2019-01-23T11:49:50.701Z,79.205322
2019-01-23T11:51:00.241Z,79.315186
2019-01-23T11:52:09.774Z,79.455566
2019-01-23T11:53:19.333Z,80.194092
2019-01-23T11:54:28.886Z,80.505371
2019-01-23T11:55:38.446Z,80.401611
2019-01-23T11:56:47.972Z,79.876709
2019-01-23T11:57:57.501Z,80.194092
2019-01-23T11:59:07.036Z,80.084229
2019-01-23T12:00:16.585Z,80.084229
2019-01-23T12:01:27.577Z,80.084229
2019-01-23T12:02:35.641Z,79.772949
2019-01-23T12:03:45.210Z,79.840088
2019-01-23T12:04:54.738Z,78.894043
2019-01-23T12:06:04.271Z,79.034424
2019-01-23T12:07:13.782Z,79.626465
2019-01-23T12:08:23.309Z,79.418945
2019-01-23T12:09:32.843Z,78.4729
2019-01-23T12:10:42.391Z,78.363037
2019-01-23T12:11:51.920Z,78.57666
2019-01-23T12:13:01.478Z,78.222656
2019-01-23T12:14:11.028Z,77.838135
2019-01-23T12:15:20.592Z,78.222656
2019-01-23T12:16:30.160Z,77.941895
2019-01-23T12:17:39.723Z,78.4729
2019-01-23T12:18:49.263Z,78.57666
2019-01-23T12:19:59.247Z,78.57666
2019-01-23T12:21:09.045Z,78.78418
2019-01-23T12:22:18.561Z,78.57666
2019-01-23T12:23:28.107Z,78.259277
2019-01-23T12:24:37.613Z,78.295898
2019-01-23T12:25:47.171Z,78.613281
2019-01-23T12:26:56.702Z,78.259277
2019-01-23T12:28:06.238Z,78.051758
2019-01-23T12:29:15.793Z,78.155518
2019-01-23T12:30:25.349Z,78.363037
2019-01-23T12:31:35.378Z,78.155518
2019-01-23T12:32:44.471Z,78.259277
2019-01-23T12:33:54.007Z,78.155518
2019-01-23T12:35:03.549Z,77.520752
2019-01-23T12:36:13.087Z,77.313232
2019-01-23T12:37:22.624Z,77.734375
2019-01-23T12:38:32.165Z,77.734375
2019-01-23T12:39:41.709Z,77.941895
2019-01-23T12:40:51.267Z,77.630615
2019-01-23T12:42:00.831Z,78.051758
2019-01-23T12:43:10.366Z,78.363037
2019-01-23T12:44:18.894Z,78.155518
2019-01-23T12:45:28.426Z,78.259277
2019-01-23T12:46:37.998Z,78.051758
2019-01-23T12:47:47.503Z,78.051758
2019-01-23T12:48:57.035Z,77.630615
2019-01-23T12:50:06.579Z,77.838135
2019-01-23T12:51:16.172Z,77.416992
2019-01-23T12:52:25.724Z,77.630615
2019-01-23T12:53:35.254Z,77.838135
2019-01-23T12:54:44.802Z,77.838135
2019-01-23T12:55:54.319Z,77.941895
2019-01-23T12:57:03.859Z,77.630615
2019-01-23T12:58:14.370Z,77.801514
2019-01-23T12:59:23.929Z,78.015137
2019-01-23T13:00:33.447Z,77.172852
2019-01-23T13:01:42.997Z,77.593994
2019-01-23T13:02:52.515Z,77.172852
2019-01-23T13:04:02.055Z,77.23999
2019-01-23T13:05:11.593Z,77.349854
2019-01-23T13:06:21.137Z,77.13623
2019-01-23T13:07:33.439Z,77.557373
2019-01-23T13:08:40.284Z,77.23999
2019-01-23T13:09:49.821Z,77.13623
2019-01-23T13:10:59.361Z,76.293945
2019-01-23T13:12:08.927Z,75.769043
2019-01-23T13:13:19.265Z,75.872803
2019-01-23T13:14:28.036Z,75.872803
2019-01-23T13:15:37.574Z,75.55542
2019-01-23T13:16:47.160Z,75.665283